North Dighton, MA

41° 51' 30"N, 71° 08' 44"W, Elevation 95 ft.
Eastern Time

Hourly observations for the last 72 hours

Date Time Temperature (°F) Humi-
dity

(%)
Wind
(mph)
Pressure Rain (in) Sun
(W/m2)
UV ET
(in)
Air Dew 6 Hour 1 Hr 3 Hr 6 Hr Day
Alt
(in)
Sea
Level

(mb)
Max Min
25 02:00 44.6 42.7 57.6 44.6 93 Calm 30.11 1019.8 0.00 0 0.0 0.000
25 01:00 46.5 44.3 92 Calm 30.12 1019.9 0.00 0 0.0 0.000
25 00:00 49.6 46.5 89 Calm 30.12 1019.9 0.28 0 0.0 0.157
24 23:00 53.7 48.3 82 Calm 30.10 1019.2 0.28 0 0.0 0.156
24 22:00 55.1 48.4 78 E 3 G 12 30.09 1018.9 0.28 0 0.0 0.155
24 21:00 56.8 48.2 73 NE 3 G 11 30.06 1017.9 0.28 0 0.0 0.154
24 20:00 57.6 48.3 71.3 57.5 71 N 1 G 5 30.02 1016.8 0.28 0 0.0 0.153
24 19:00 59.8 48.8 67 NE 3 G 12 29.99 1015.4 0.28 32 0.0 0.151
24 18:00 61.4 50.8 68 N 6 G 16 29.94 1014.0 0.28 51 0.0 0.147
24 17:00 62.2 50.7 66 E 5 G 10 29.90 1012.5 0.28 167 0.6 0.141
24 16:00 62.2 51.9 69 N 2 G 14 29.86 1011.3 0.28 130 0.7 0.135
24 15:00 69.7 52.8 55 NNW 15 G 25 29.79 1008.9 0.28 466 2.7 0.119
24 14:00 70.8 52.8 72.4 63.8 53 N 13 G 26 29.76 1007.8 0.28 432 3.2 0.098
24 13:00 70.1 53.7 56 NW 14 G 26 29.72 1006.5 0.28 436 3.5 0.078
24 12:00 71.0 56.4 60 NW 18 G 27 29.70 1005.7 0.28 1053 3.0 0.059
24 11:00 69.2 55.2 61 NNW 22 G 38 29.68 1005.3 0.28 1092 2.6 0.039
24 10:00 66.9 56.4 69 NNW 17 G 28 29.67 1004.9 0.28 891 3.8 0.025
24 09:00 65.8 56.1 71 NW 12 G 28 29.67 1004.6 0.28 513 2.1 0.011
24 08:00 63.8 56.1 63.8 58.5 76 WNW 13 G 19 29.66 1004.6 0.01 0.28 306 0.8 0.003
24 07:00 60.5 56.0 85 WNW 11 G 18 29.65 1004.2 0.28 185 0.0 0.001
24 06:00 58.6 56.6 93 W 7 G 10 29.65 1004.0 0.28 19 0.0 0.000
24 05:00 59.0 57.9 96 W 7 G 12 29.65 1004.0 0.01 0.28 0 0.0 0.000
24 04:00 59.5 58.4 96 WSW 3 G 8 29.65 1004.2 0.28 0 0.0 0.000
24 03:00 60.4 59.3 96 W 3 G 8 29.68 1005.0 0.01 0.28 0 0.0 0.000
24 02:00 60.1 59.0 60.1 58.0 96 WSW 3 G 8 29.71 1006.1 0.11 0.27 0.27 0.27 0 0.0 0.000
24 01:00 59.3 57.6 94 W 1 G 6 29.76 1007.8 0.16 0.16 0 0.0 0.000
24 00:00 58.6 56.9 94 S 5 G 12 29.74 1007.0 0.03 0 0.0 0.065
23 23:00 58.2 56.8 95 SSW 4 G 8 29.76 1007.8 0.03 0 0.0 0.065
23 22:00 58.0 56.0 93 SSW 5 G 12 29.81 1009.4 0.03 0 0.0 0.065
23 21:00 58.4 55.8 91 S 5 G 13 29.86 1011.2 0.03 0 0.0 0.065
23 20:00 59.1 56.2 62.3 58.4 90 SW 4 G 15 29.88 1011.7 0.03 0.03 0.03 0 0.0 0.064
23 19:00 58.9 55.7 89 S 6 G 16 29.90 1012.7 0.03 33 0.0 0.063
23 18:00 58.5 55.0 88 S 5 G 12 29.95 1014.3 0.03 0.03 69 0.0 0.061
23 17:00 60.7 53.8 78 SW 3 G 12 30.01 1016.3 0.00 62 0.0 0.057
23 16:00 61.3 53.7 76 SSW 5 G 15 30.02 1016.8 0.00 144 0.8 0.051
23 15:00 61.9 52.8 72 S 5 G 16 30.05 1017.6 0.00 360 2.4 0.041
23 14:00 61.1 52.0 62.3 56.9 72 S 7 G 15 30.07 1018.2 0.00 250 2.1 0.032
23 13:00 61.0 51.9 72 SSW 6 G 15 30.11 1019.6 0.00 359 3.1 0.025
23 12:00 60.7 52.4 74 S 7 G 13 30.13 1020.5 0.00 301 2.6 0.018
23 11:00 58.3 52.5 81 S 4 G 11 30.16 1021.5 0.00 258 2.0 0.014
23 10:00 57.5 51.0 79 SW 2 G 9 30.19 1022.3 0.00 105 0.8 0.010
23 09:00 57.4 49.9 76 SSW 5 G 14 30.20 1022.9 0.00 130 0.8 0.006
23 08:00 56.9 48.3 56.9 45.4 73 SSW 2 G 11 30.21 1023.1 0.00 69 0.0 0.003
23 07:00 55.6 45.2 68 S 4 G 9 30.20 1022.8 0.00 100 0.0 0.001
23 06:00 53.7 45.6 74 S 5 G 7 30.23 1023.7 0.00 23 0.0 0.000
23 05:00 51.1 46.1 83 S 1 G 5 30.22 1023.5 0.00 0 0.0 0.000
23 04:00 49.5 47.3 92 S 0 G 2 30.23 1023.8 0.00 0 0.0 0.000
23 03:00 47.5 45.9 94 Calm 30.24 1024.2 0.00 0 0.0 0.000
23 02:00 45.6 43.7 56.2 45.4 93 S 0 G 1 30.24 1024.2 0.00 0 0.0 0.000
23 01:00 46.7 44.8 93 S 1 G 2 30.25 1024.4 0.00 0 0.0 0.000
23 00:00 47.0 44.2 90 S 0 G 2 30.25 1024.2 0.00 0 0.0 0.221
22 23:00 48.2 44.5 87 S 0 G 1 30.24 1024.1 0.00 0 0.0 0.220
22 22:00 49.8 42.9 77 S 0 G 4 30.24 1024.2 0.00 0 0.0 0.219
22 21:00 52.9 42.2 67 S 2 G 5 30.25 1024.2 0.00 0 0.0 0.218
22 20:00 56.1 43.7 71.3 56.1 63 S 3 G 7 30.24 1023.9 0.00 0 0.0 0.216
22 19:00 59.5 45.2 59 SSW 3 G 9 30.22 1023.2 0.00 137 0.0 0.210
22 18:00 61.8 46.4 57 S 8 G 13 30.20 1022.7 0.00 287 0.6 0.199
22 17:00 70.2 46.1 42 SW 4 G 12 30.17 1021.8 0.00 496 1.8 0.183
22 16:00 71.0 39.7 32 N 9 G 14 30.16 1021.3 0.00 710 3.4 0.164
22 15:00 69.6 40.8 35 NNW 10 G 17 30.16 1021.3 0.00 849 5.5 0.140
22 14:00 68.6 39.9 68.6 56.1 35 NNW 5 G 19 30.14 1020.8 0.00 935 6.9 0.114
22 13:00 66.4 41.4 40 NW 8 G 17 30.15 1021.1 0.00 970 7.7 0.089
22 12:00 64.6 40.4 41 NNW 12 G 18 30.16 1021.4 0.00 937 7.3 0.066
22 11:00 62.5 40.3 44 N 6 G 12 30.15 1021.2 0.00 874 6.2 0.046
22 10:00 59.9 40.7 49 N 6 G 18 30.15 1020.9 0.00 724 4.5 0.032
22 09:00 58.9 40.3 50 N 8 G 19 30.13 1020.4 0.00 517 2.7 0.019
22 08:00 56.1 41.5 56.1 42.8 58 NNW 13 G 20 30.11 1019.6 0.00 422 1.3 0.010
22 07:00 52.8 42.2 67 NNW 11 G 18 30.09 1018.9 0.00 216 0.0 0.007
22 06:00 47.0 41.2 80 NNW 3 G 4 30.08 1018.5 0.00 40 0.0 0.006
22 05:00 44.6 40.4 85 NW 4 G 5 30.04 1017.4 0.00 0 0.0 0.006
22 04:00 43.9 40.6 88 NW 2 G 4 30.03 1016.9 0.00 0 0.0 0.006
22 03:00 46.1 40.9 82 NW 2 G 2 30.01 1016.2 0.00 0 0.0 0.005

Data generated by WxSolution Version 1.9.1.7, Build 2018.11.24.